sensor_id;sensor_type;location;lat;lon;timestamp;P1;durP1;ratioP1;P2;durP2;ratioP2
36663;SDS011;53333;51.976;20.144;2023-03-14T00:02:32;15.02;;;8.90;;
36663;SDS011;53333;51.976;20.144;2023-03-14T00:05:06;15.95;;;8.85;;
36663;SDS011;53333;51.976;20.144;2023-03-14T00:07:40;16.10;;;8.15;;
36663;SDS011;53333;51.976;20.144;2023-03-14T00:10:13;13.85;;;7.82;;
36663;SDS011;53333;51.976;20.144;2023-03-14T00:12:47;17.30;;;7.85;;
36663;SDS011;53333;51.976;20.144;2023-03-14T00:15:20;16.33;;;8.35;;
36663;SDS011;53333;51.976;20.144;2023-03-14T00:17:54;17.70;;;8.10;;
36663;SDS011;53333;51.976;20.144;2023-03-14T00:20:27;15.27;;;7.97;;
36663;SDS011;53333;51.976;20.144;2023-03-14T00:23:00;15.90;;;8.20;;
36663;SDS011;53333;51.976;20.144;2023-03-14T00:25:34;17.45;;;7.88;;
36663;SDS011;53333;51.976;20.144;2023-03-14T00:28:07;18.63;;;7.75;;
36663;SDS011;53333;51.976;20.144;2023-03-14T00:30:40;17.05;;;7.55;;
36663;SDS011;53333;51.976;20.144;2023-03-14T00:33:14;14.63;;;7.63;;
36663;SDS011;53333;51.976;20.144;2023-03-14T00:35:52;16.33;;;7.95;;
36663;SDS011;53333;51.976;20.144;2023-03-14T00:38:26;16.08;;;7.60;;
36663;SDS011;53333;51.976;20.144;2023-03-14T00:43:35;13.70;;;7.82;;
36663;SDS011;53333;51.976;20.144;2023-03-14T00:46:08;15.73;;;8.82;;
36663;SDS011;53333;51.976;20.144;2023-03-14T00:48:43;15.05;;;8.30;;
36663;SDS011;53333;51.976;20.144;2023-03-14T00:51:16;14.10;;;7.97;;
36663;SDS011;53333;51.976;20.144;2023-03-14T00:53:49;16.13;;;8.02;;
36663;SDS011;53333;51.976;20.144;2023-03-14T00:56:22;14.13;;;8.80;;
36663;SDS011;53333;51.976;20.144;2023-03-14T00:58:56;21.67;;;9.37;;
36663;SDS011;53333;51.976;20.144;2023-03-14T01:01:29;21.70;;;8.18;;
36663;SDS011;53333;51.976;20.144;2023-03-14T01:04:03;18.90;;;10.07;;
36663;SDS011;53333;51.976;20.144;2023-03-14T01:06:36;16.42;;;8.70;;
36663;SDS011;53333;51.976;20.144;2023-03-14T01:09:10;14.15;;;8.38;;
36663;SDS011;53333;51.976;20.144;2023-03-14T01:11:43;15.93;;;8.45;;
36663;SDS011;53333;51.976;20.144;2023-03-14T01:14:17;16.55;;;7.85;;
36663;SDS011;53333;51.976;20.144;2023-03-14T01:16:50;19.38;;;8.32;;
36663;SDS011;53333;51.976;20.144;2023-03-14T01:19:25;14.25;;;7.65;;
36663;SDS011;53333;51.976;20.144;2023-03-14T01:21:58;16.40;;;7.93;;
36663;SDS011;53333;51.976;20.144;2023-03-14T01:24:31;17.90;;;7.93;;
36663;SDS011;53333;51.976;20.144;2023-03-14T01:27:04;25.77;;;9.25;;
36663;SDS011;53333;51.976;20.144;2023-03-14T01:29:37;15.15;;;7.57;;
36663;SDS011;53333;51.976;20.144;2023-03-14T01:32:11;18.30;;;8.10;;
36663;SDS011;53333;51.976;20.144;2023-03-14T01:34:46;13.02;;;7.95;;
36663;SDS011;53333;51.976;20.144;2023-03-14T01:37:19;19.45;;;8.65;;
36663;SDS011;53333;51.976;20.144;2023-03-14T01:39:52;12.65;;;8.25;;
36663;SDS011;53333;51.976;20.144;2023-03-14T01:42:54;17.38;;;9.15;;
36663;SDS011;53333;51.976;20.144;2023-03-14T01:48:15;15.80;;;8.02;;
36663;SDS011;53333;51.976;20.144;2023-03-14T01:50:49;19.58;;;9.02;;
36663;SDS011;53333;51.976;20.144;2023-03-14T01:53:23;17.98;;;8.02;;
36663;SDS011;53333;51.976;20.144;2023-03-14T01:55:56;16.58;;;8.38;;
36663;SDS011;53333;51.976;20.144;2023-03-14T01:58:30;15.32;;;9.20;;
36663;SDS011;53333;51.976;20.144;2023-03-14T02:01:06;15.65;;;7.97;;
36663;SDS011;53333;51.976;20.144;2023-03-14T02:03:44;17.45;;;7.97;;
36663;SDS011;53333;51.976;20.144;2023-03-14T02:06:22;15.38;;;8.18;;
36663;SDS011;53333;51.976;20.144;2023-03-14T02:09:02;13.75;;;8.10;;
36663;SDS011;53333;51.976;20.144;2023-03-14T02:11:37;15.48;;;8.23;;
36663;SDS011;53333;51.976;20.144;2023-03-14T02:14:31;11.77;;;7.50;;
36663;SDS011;53333;51.976;20.144;2023-03-14T02:17:26;17.73;;;7.90;;
36663;SDS011;53333;51.976;20.144;2023-03-14T02:20:25;14.10;;;7.68;;
36663;SDS011;53333;51.976;20.144;2023-03-14T02:23:06;15.93;;;7.70;;
36663;SDS011;53333;51.976;20.144;2023-03-14T02:25:41;18.92;;;8.00;;
36663;SDS011;53333;51.976;20.144;2023-03-14T02:28:21;13.60;;;7.68;;
36663;SDS011;53333;51.976;20.144;2023-03-14T02:30:59;13.50;;;6.63;;
36663;SDS011;53333;51.976;20.144;2023-03-14T02:33:36;14.05;;;7.60;;
36663;SDS011;53333;51.976;20.144;2023-03-14T02:36:11;14.10;;;7.70;;
36663;SDS011;53333;51.976;20.144;2023-03-14T02:38:47;14.73;;;7.95;;
36663;SDS011;53333;51.976;20.144;2023-03-14T02:41:28;13.70;;;7.93;;
36663;SDS011;53333;51.976;20.144;2023-03-14T02:44:07;14.07;;;7.22;;
36663;SDS011;53333;51.976;20.144;2023-03-14T02:46:40;12.95;;;7.05;;
36663;SDS011;53333;51.976;20.144;2023-03-14T02:49:14;12.65;;;7.28;;
36663;SDS011;53333;51.976;20.144;2023-03-14T02:51:48;15.00;;;8.82;;
36663;SDS011;53333;51.976;20.144;2023-03-14T02:54:22;14.02;;;7.35;;
36663;SDS011;53333;51.976;20.144;2023-03-14T02:56:55;14.85;;;7.95;;
36663;SDS011;53333;51.976;20.144;2023-03-14T02:59:30;14.23;;;7.55;;
36663;SDS011;53333;51.976;20.144;2023-03-14T03:02:10;16.88;;;7.68;;
36663;SDS011;53333;51.976;20.144;2023-03-14T03:04:43;14.52;;;7.55;;
36663;SDS011;53333;51.976;20.144;2023-03-14T03:07:16;13.63;;;7.00;;
36663;SDS011;53333;51.976;20.144;2023-03-14T03:09:50;14.80;;;8.07;;
36663;SDS011;53333;51.976;20.144;2023-03-14T03:12:23;14.48;;;7.35;;
36663;SDS011;53333;51.976;20.144;2023-03-14T03:14:58;13.70;;;7.45;;
36663;SDS011;53333;51.976;20.144;2023-03-14T03:17:31;14.10;;;7.47;;
36663;SDS011;53333;51.976;20.144;2023-03-14T03:20:04;10.35;;;6.97;;
36663;SDS011;53333;51.976;20.144;2023-03-14T03:22:40;13.90;;;8.02;;
36663;SDS011;53333;51.976;20.144;2023-03-14T03:25:13;13.65;;;7.43;;
36663;SDS011;53333;51.976;20.144;2023-03-14T03:27:46;12.68;;;6.90;;
36663;SDS011;53333;51.976;20.144;2023-03-14T03:30:23;15.75;;;6.93;;
36663;SDS011;53333;51.976;20.144;2023-03-14T03:32:56;13.57;;;7.65;;
36663;SDS011;53333;51.976;20.144;2023-03-14T03:35:29;12.38;;;6.53;;
36663;SDS011;53333;51.976;20.144;2023-03-14T03:38:02;10.73;;;6.97;;
36663;SDS011;53333;51.976;20.144;2023-03-14T03:40:35;12.20;;;7.28;;
36663;SDS011;53333;51.976;20.144;2023-03-14T03:43:09;11.20;;;6.85;;
36663;SDS011;53333;51.976;20.144;2023-03-14T03:45:46;14.20;;;7.22;;
36663;SDS011;53333;51.976;20.144;2023-03-14T03:48:19;13.02;;;6.60;;
36663;SDS011;53333;51.976;20.144;2023-03-14T03:50:52;11.70;;;6.53;;
36663;SDS011;53333;51.976;20.144;2023-03-14T03:53:26;11.68;;;6.80;;
36663;SDS011;53333;51.976;20.144;2023-03-14T03:56:08;10.68;;;6.63;;
36663;SDS011;53333;51.976;20.144;2023-03-14T03:58:42;11.07;;;6.50;;
36663;SDS011;53333;51.976;20.144;2023-03-14T04:01:17;12.15;;;6.25;;
36663;SDS011;53333;51.976;20.144;2023-03-14T04:03:53;13.73;;;6.90;;
36663;SDS011;53333;51.976;20.144;2023-03-14T04:06:27;12.43;;;6.32;;
36663;SDS011;53333;51.976;20.144;2023-03-14T04:09:02;11.07;;;6.10;;
36663;SDS011;53333;51.976;20.144;2023-03-14T04:11:42;14.43;;;6.13;;
36663;SDS011;53333;51.976;20.144;2023-03-14T04:14:24;13.50;;;6.15;;
36663;SDS011;53333;51.976;20.144;2023-03-14T04:17:06;13.88;;;6.03;;
36663;SDS011;53333;51.976;20.144;2023-03-14T04:19:40;13.18;;;5.95;;
36663;SDS011;53333;51.976;20.144;2023-03-14T04:22:14;17.65;;;6.30;;
36663;SDS011;53333;51.976;20.144;2023-03-14T04:24:51;9.75;;;5.75;;
36663;SDS011;53333;51.976;20.144;2023-03-14T04:27:25;12.20;;;5.93;;
36663;SDS011;53333;51.976;20.144;2023-03-14T04:30:00;10.50;;;5.38;;
36663;SDS011;53333;51.976;20.144;2023-03-14T04:32:51;10.75;;;5.85;;
36663;SDS011;53333;51.976;20.144;2023-03-14T04:35:27;11.80;;;5.70;;
36663;SDS011;53333;51.976;20.144;2023-03-14T04:38:06;14.65;;;6.03;;
36663;SDS011;53333;51.976;20.144;2023-03-14T04:40:40;14.07;;;5.80;;
36663;SDS011;53333;51.976;20.144;2023-03-14T04:45:53;8.60;;;5.50;;
36663;SDS011;53333;51.976;20.144;2023-03-14T04:48:28;14.52;;;5.82;;
36663;SDS011;53333;51.976;20.144;2023-03-14T04:51:02;13.25;;;5.15;;
36663;SDS011;53333;51.976;20.144;2023-03-14T04:53:37;12.95;;;5.47;;
36663;SDS011;53333;51.976;20.144;2023-03-14T04:56:14;14.43;;;5.65;;
36663;SDS011;53333;51.976;20.144;2023-03-14T04:58:47;10.90;;;5.32;;
36663;SDS011;53333;51.976;20.144;2023-03-14T05:01:22;8.02;;;5.65;;
36663;SDS011;53333;51.976;20.144;2023-03-14T05:04:15;11.90;;;6.15;;
36663;SDS011;53333;51.976;20.144;2023-03-14T05:07:14;9.90;;;4.78;;
36663;SDS011;53333;51.976;20.144;2023-03-14T05:10:01;10.02;;;5.07;;
36663;SDS011;53333;51.976;20.144;2023-03-14T05:12:48;11.73;;;5.63;;
36663;SDS011;53333;51.976;20.144;2023-03-14T05:15:52;9.38;;;4.95;;
36663;SDS011;53333;51.976;20.144;2023-03-14T05:18:44;8.02;;;5.10;;
36663;SDS011;53333;51.976;20.144;2023-03-14T05:21:37;9.30;;;4.57;;
36663;SDS011;53333;51.976;20.144;2023-03-14T05:24:19;6.97;;;4.05;;
36663;SDS011;53333;51.976;20.144;2023-03-14T05:27:07;7.55;;;4.78;;
36663;SDS011;53333;51.976;20.144;2023-03-14T05:30:04;10.75;;;5.00;;
36663;SDS011;53333;51.976;20.144;2023-03-14T05:33:10;8.02;;;4.63;;
36663;SDS011;53333;51.976;20.144;2023-03-14T05:35:46;11.05;;;5.38;;
36663;SDS011;53333;51.976;20.144;2023-03-14T05:38:38;11.27;;;5.55;;
36663;SDS011;53333;51.976;20.144;2023-03-14T05:41:32;7.82;;;4.45;;
36663;SDS011;53333;51.976;20.144;2023-03-14T05:44:32;10.23;;;5.22;;
36663;SDS011;53333;51.976;20.144;2023-03-14T05:47:23;14.27;;;5.30;;
36663;SDS011;53333;51.976;20.144;2023-03-14T05:50:10;7.57;;;5.00;;
36663;SDS011;53333;51.976;20.144;2023-03-14T05:53:18;10.02;;;4.50;;
36663;SDS011;53333;51.976;20.144;2023-03-14T05:56:11;8.35;;;4.43;;
36663;SDS011;53333;51.976;20.144;2023-03-14T05:59:03;8.63;;;4.65;;
36663;SDS011;53333;51.976;20.144;2023-03-14T06:02:02;8.52;;;4.88;;
36663;SDS011;53333;51.976;20.144;2023-03-14T06:04:45;7.85;;;4.35;;
36663;SDS011;53333;51.976;20.144;2023-03-14T06:07:19;14.55;;;5.60;;
36663;SDS011;53333;51.976;20.144;2023-03-14T06:09:52;10.10;;;4.28;;
36663;SDS011;53333;51.976;20.144;2023-03-14T06:12:27;8.38;;;4.20;;
36663;SDS011;53333;51.976;20.144;2023-03-14T06:15:00;8.70;;;4.93;;
36663;SDS011;53333;51.976;20.144;2023-03-14T06:17:34;10.55;;;4.45;;
36663;SDS011;53333;51.976;20.144;2023-03-14T06:20:13;9.48;;;4.60;;
36663;SDS011;53333;51.976;20.144;2023-03-14T06:22:46;7.00;;;4.32;;
36663;SDS011;53333;51.976;20.144;2023-03-14T06:25:19;9.35;;;4.40;;
36663;SDS011;53333;51.976;20.144;2023-03-14T06:27:54;7.55;;;4.22;;
36663;SDS011;53333;51.976;20.144;2023-03-14T06:30:27;10.00;;;4.75;;
36663;SDS011;53333;51.976;20.144;2023-03-14T06:35:34;9.48;;;4.45;;
36663;SDS011;53333;51.976;20.144;2023-03-14T06:38:07;7.50;;;4.20;;
36663;SDS011;53333;51.976;20.144;2023-03-14T06:40:41;12.30;;;4.75;;
36663;SDS011;53333;51.976;20.144;2023-03-14T06:43:22;7.18;;;4.28;;
36663;SDS011;53333;51.976;20.144;2023-03-14T06:45:56;8.13;;;4.40;;
36663;SDS011;53333;51.976;20.144;2023-03-14T06:48:29;9.60;;;4.80;;
36663;SDS011;53333;51.976;20.144;2023-03-14T06:51:02;15.23;;;4.85;;
36663;SDS011;53333;51.976;20.144;2023-03-14T06:56:09;8.50;;;4.90;;
36663;SDS011;53333;51.976;20.144;2023-03-14T06:58:44;10.40;;;4.75;;
36663;SDS011;53333;51.976;20.144;2023-03-14T07:01:22;8.73;;;4.45;;
36663;SDS011;53333;51.976;20.144;2023-03-14T07:04:00;14.93;;;5.10;;
36663;SDS011;53333;51.976;20.144;2023-03-14T07:06:33;11.57;;;5.03;;
36663;SDS011;53333;51.976;20.144;2023-03-14T07:09:08;8.32;;;4.53;;
36663;SDS011;53333;51.976;20.144;2023-03-14T07:11:45;7.90;;;4.30;;
36663;SDS011;53333;51.976;20.144;2023-03-14T07:14:22;10.18;;;4.82;;
36663;SDS011;53333;51.976;20.144;2023-03-14T07:16:55;9.68;;;5.53;;
36663;SDS011;53333;51.976;20.144;2023-03-14T07:19:30;9.68;;;4.63;;
36663;SDS011;53333;51.976;20.144;2023-03-14T07:22:03;8.77;;;4.93;;
36663;SDS011;53333;51.976;20.144;2023-03-14T07:24:37;7.15;;;4.35;;
36663;SDS011;53333;51.976;20.144;2023-03-14T07:27:13;12.23;;;4.30;;
36663;SDS011;53333;51.976;20.144;2023-03-14T07:29:47;9.43;;;4.50;;
36663;SDS011;53333;51.976;20.144;2023-03-14T07:32:20;9.85;;;4.03;;
36663;SDS011;53333;51.976;20.144;2023-03-14T07:34:53;13.13;;;7.78;;
36663;SDS011;53333;51.976;20.144;2023-03-14T07:37:26;9.70;;;4.90;;
36663;SDS011;53333;51.976;20.144;2023-03-14T07:40:01;10.30;;;5.20;;
36663;SDS011;53333;51.976;20.144;2023-03-14T07:42:37;6.97;;;4.13;;
36663;SDS011;53333;51.976;20.144;2023-03-14T07:45:20;7.00;;;3.75;;
36663;SDS011;53333;51.976;20.144;2023-03-14T07:47:55;11.13;;;5.35;;
36663;SDS011;53333;51.976;20.144;2023-03-14T07:50:29;9.63;;;5.07;;
36663;SDS011;53333;51.976;20.144;2023-03-14T07:53:02;7.22;;;3.95;;
36663;SDS011;53333;51.976;20.144;2023-03-14T07:55:35;6.82;;;4.32;;
36663;SDS011;53333;51.976;20.144;2023-03-14T07:58:08;9.63;;;4.45;;
36663;SDS011;53333;51.976;20.144;2023-03-14T08:00:42;9.07;;;4.95;;
36663;SDS011;53333;51.976;20.144;2023-03-14T08:03:19;7.28;;;4.07;;
36663;SDS011;53333;51.976;20.144;2023-03-14T08:05:52;8.27;;;3.88;;
36663;SDS011;53333;51.976;20.144;2023-03-14T08:08:25;8.43;;;4.07;;
36663;SDS011;53333;51.976;20.144;2023-03-14T08:11:01;8.23;;;4.70;;
36663;SDS011;53333;51.976;20.144;2023-03-14T08:13:37;9.88;;;4.75;;
36663;SDS011;53333;51.976;20.144;2023-03-14T08:16:12;7.68;;;4.50;;
36663;SDS011;53333;51.976;20.144;2023-03-14T08:18:45;11.82;;;4.55;;
36663;SDS011;53333;51.976;20.144;2023-03-14T08:21:18;13.57;;;4.95;;
36663;SDS011;53333;51.976;20.144;2023-03-14T08:23:52;8.20;;;4.15;;
36663;SDS011;53333;51.976;20.144;2023-03-14T08:26:25;12.27;;;4.45;;
36663;SDS011;53333;51.976;20.144;2023-03-14T08:28:58;10.93;;;4.65;;
36663;SDS011;53333;51.976;20.144;2023-03-14T08:31:32;6.63;;;4.65;;
36663;SDS011;53333;51.976;20.144;2023-03-14T08:34:05;10.43;;;4.20;;
36663;SDS011;53333;51.976;20.144;2023-03-14T08:36:38;12.90;;;4.63;;
36663;SDS011;53333;51.976;20.144;2023-03-14T08:39:11;10.30;;;4.53;;
36663;SDS011;53333;51.976;20.144;2023-03-14T08:41:44;8.00;;;3.85;;
36663;SDS011;53333;51.976;20.144;2023-03-14T08:44:17;8.82;;;4.90;;
36663;SDS011;53333;51.976;20.144;2023-03-14T08:51:58;9.07;;;5.43;;
36663;SDS011;53333;51.976;20.144;2023-03-14T08:54:31;11.60;;;5.28;;
36663;SDS011;53333;51.976;20.144;2023-03-14T08:57:04;7.90;;;4.35;;
36663;SDS011;53333;51.976;20.144;2023-03-14T08:59:37;8.50;;;4.45;;
36663;SDS011;53333;51.976;20.144;2023-03-14T09:02:12;10.55;;;5.75;;
36663;SDS011;53333;51.976;20.144;2023-03-14T09:04:45;10.77;;;5.10;;
36663;SDS011;53333;51.976;20.144;2023-03-14T09:07:19;9.57;;;4.65;;
36663;SDS011;53333;51.976;20.144;2023-03-14T09:09:52;10.18;;;4.88;;
36663;SDS011;53333;51.976;20.144;2023-03-14T09:12:25;12.77;;;5.55;;
36663;SDS011;53333;51.976;20.144;2023-03-14T09:15:01;11.43;;;5.63;;
36663;SDS011;53333;51.976;20.144;2023-03-14T09:17:36;6.78;;;5.32;;
36663;SDS011;53333;51.976;20.144;2023-03-14T09:20:09;6.60;;;4.63;;
36663;SDS011;53333;51.976;20.144;2023-03-14T09:22:43;9.30;;;5.40;;
36663;SDS011;53333;51.976;20.144;2023-03-14T09:25:17;9.93;;;5.03;;
36663;SDS011;53333;51.976;20.144;2023-03-14T09:27:50;7.85;;;4.63;;
36663;SDS011;53333;51.976;20.144;2023-03-14T09:30:23;8.07;;;5.07;;
36663;SDS011;53333;51.976;20.144;2023-03-14T09:32:57;12.43;;;5.85;;
36663;SDS011;53333;51.976;20.144;2023-03-14T09:35:30;12.13;;;5.65;;
36663;SDS011;53333;51.976;20.144;2023-03-14T09:38:05;11.00;;;5.00;;
36663;SDS011;53333;51.976;20.144;2023-03-14T09:40:40;10.20;;;5.93;;
36663;SDS011;53333;51.976;20.144;2023-03-14T09:43:13;10.73;;;5.88;;
36663;SDS011;53333;51.976;20.144;2023-03-14T09:45:47;9.77;;;6.22;;
36663;SDS011;53333;51.976;20.144;2023-03-14T09:48:24;16.63;;;7.15;;
36663;SDS011;53333;51.976;20.144;2023-03-14T09:51:01;12.60;;;5.22;;
36663;SDS011;53333;51.976;20.144;2023-03-14T09:53:39;8.50;;;5.45;;
36663;SDS011;53333;51.976;20.144;2023-03-14T09:56:15;12.80;;;7.07;;
36663;SDS011;53333;51.976;20.144;2023-03-14T09:58:51;13.18;;;5.38;;
36663;SDS011;53333;51.976;20.144;2023-03-14T10:01:28;11.77;;;6.13;;
36663;SDS011;53333;51.976;20.144;2023-03-14T10:04:06;8.70;;;4.82;;
36663;SDS011;53333;51.976;20.144;2023-03-14T10:06:45;10.57;;;5.75;;
36663;SDS011;53333;51.976;20.144;2023-03-14T10:09:19;12.07;;;5.35;;
36663;SDS011;53333;51.976;20.144;2023-03-14T10:11:57;9.85;;;5.88;;
36663;SDS011;53333;51.976;20.144;2023-03-14T10:14:32;10.68;;;5.53;;
36663;SDS011;53333;51.976;20.144;2023-03-14T10:17:07;8.40;;;4.85;;
36663;SDS011;53333;51.976;20.144;2023-03-14T10:19:52;11.20;;;5.55;;
36663;SDS011;53333;51.976;20.144;2023-03-14T10:22:28;14.35;;;5.13;;
36663;SDS011;53333;51.976;20.144;2023-03-14T10:25:04;14.13;;;4.82;;
36663;SDS011;53333;51.976;20.144;2023-03-14T10:27:41;10.88;;;5.20;;
36663;SDS011;53333;51.976;20.144;2023-03-14T10:30:27;7.70;;;5.20;;
36663;SDS011;53333;51.976;20.144;2023-03-14T10:33:08;8.93;;;5.55;;
36663;SDS011;53333;51.976;20.144;2023-03-14T10:35:45;9.27;;;5.38;;
36663;SDS011;53333;51.976;20.144;2023-03-14T10:38:19;12.35;;;5.63;;
36663;SDS011;53333;51.976;20.144;2023-03-14T10:40:52;12.57;;;6.07;;
36663;SDS011;53333;51.976;20.144;2023-03-14T10:43:27;9.57;;;5.53;;
36663;SDS011;53333;51.976;20.144;2023-03-14T10:46:05;11.18;;;6.38;;
36663;SDS011;53333;51.976;20.144;2023-03-14T10:49:03;15.07;;;5.88;;
36663;SDS011;53333;51.976;20.144;2023-03-14T10:51:39;12.65;;;5.13;;
36663;SDS011;53333;51.976;20.144;2023-03-14T10:54:13;9.90;;;5.53;;
36663;SDS011;53333;51.976;20.144;2023-03-14T10:56:57;15.50;;;7.50;;
36663;SDS011;53333;51.976;20.144;2023-03-14T10:59:33;8.95;;;5.60;;
36663;SDS011;53333;51.976;20.144;2023-03-14T11:02:13;11.95;;;5.95;;
36663;SDS011;53333;51.976;20.144;2023-03-14T11:05:02;12.05;;;5.80;;
36663;SDS011;53333;51.976;20.144;2023-03-14T11:07:45;10.90;;;5.93;;
36663;SDS011;53333;51.976;20.144;2023-03-14T11:10:19;10.68;;;5.95;;
36663;SDS011;53333;51.976;20.144;2023-03-14T11:13:00;10.30;;;6.05;;
36663;SDS011;53333;51.976;20.144;2023-03-14T11:15:42;14.60;;;6.60;;
36663;SDS011;53333;51.976;20.144;2023-03-14T11:21:36;16.08;;;6.10;;
36663;SDS011;53333;51.976;20.144;2023-03-14T11:24:21;8.82;;;5.35;;
36663;SDS011;53333;51.976;20.144;2023-03-14T11:27:15;39.95;;;20.40;;
36663;SDS011;53333;51.976;20.144;2023-03-14T11:29:54;12.95;;;7.00;;
36663;SDS011;53333;51.976;20.144;2023-03-14T11:32:36;10.85;;;5.45;;
36663;SDS011;53333;51.976;20.144;2023-03-14T11:35:16;14.10;;;6.20;;
36663;SDS011;53333;51.976;20.144;2023-03-14T11:37:55;10.07;;;5.25;;
36663;SDS011;53333;51.976;20.144;2023-03-14T11:40:37;8.25;;;5.57;;
36663;SDS011;53333;51.976;20.144;2023-03-14T11:43:13;9.40;;;5.65;;
36663;SDS011;53333;51.976;20.144;2023-03-14T11:45:50;10.88;;;6.30;;
36663;SDS011;53333;51.976;20.144;2023-03-14T11:48:28;12.23;;;5.82;;
36663;SDS011;53333;51.976;20.144;2023-03-14T11:51:08;12.43;;;6.60;;
36663;SDS011;53333;51.976;20.144;2023-03-14T11:53:53;9.95;;;5.55;;
36663;SDS011;53333;51.976;20.144;2023-03-14T11:56:34;9.25;;;5.18;;
36663;SDS011;53333;51.976;20.144;2023-03-14T12:01:54;7.70;;;5.40;;
36663;SDS011;53333;51.976;20.144;2023-03-14T12:04:39;8.95;;;4.72;;
36663;SDS011;53333;51.976;20.144;2023-03-14T12:07:19;9.18;;;4.28;;
36663;SDS011;53333;51.976;20.144;2023-03-14T12:09:56;9.15;;;4.30;;
36663;SDS011;53333;51.976;20.144;2023-03-14T12:12:31;8.05;;;4.15;;
36663;SDS011;53333;51.976;20.144;2023-03-14T12:15:05;7.93;;;4.18;;
36663;SDS011;53333;51.976;20.144;2023-03-14T12:17:53;7.97;;;4.03;;
36663;SDS011;53333;51.976;20.144;2023-03-14T12:20:27;7.55;;;5.20;;
36663;SDS011;53333;51.976;20.144;2023-03-14T12:23:02;8.02;;;5.20;;
36663;SDS011;53333;51.976;20.144;2023-03-14T12:25:36;12.40;;;5.57;;
36663;SDS011;53333;51.976;20.144;2023-03-14T12:28:21;8.38;;;4.50;;
36663;SDS011;53333;51.976;20.144;2023-03-14T12:34:26;9.20;;;5.57;;
36663;SDS011;53333;51.976;20.144;2023-03-14T12:37:10;11.73;;;5.20;;
36663;SDS011;53333;51.976;20.144;2023-03-14T12:39:53;10.68;;;5.20;;
36663;SDS011;53333;51.976;20.144;2023-03-14T12:42:38;11.35;;;5.50;;
36663;SDS011;53333;51.976;20.144;2023-03-14T12:45:25;12.07;;;6.97;;
36663;SDS011;53333;51.976;20.144;2023-03-14T12:48:02;13.25;;;6.03;;
36663;SDS011;53333;51.976;20.144;2023-03-14T12:50:42;11.88;;;7.07;;
36663;SDS011;53333;51.976;20.144;2023-03-14T12:56:35;10.35;;;5.70;;
36663;SDS011;53333;51.976;20.144;2023-03-14T12:59:29;13.27;;;6.22;;
36663;SDS011;53333;51.976;20.144;2023-03-14T13:02:20;19.13;;;9.00;;
36663;SDS011;53333;51.976;20.144;2023-03-14T13:05:03;14.10;;;6.82;;
36663;SDS011;53333;51.976;20.144;2023-03-14T13:08:02;30.40;;;16.50;;
36663;SDS011;53333;51.976;20.144;2023-03-14T13:10:39;16.98;;;7.50;;
36663;SDS011;53333;51.976;20.144;2023-03-14T13:13:17;13.25;;;7.18;;
36663;SDS011;53333;51.976;20.144;2023-03-14T13:15:54;12.95;;;7.25;;
36663;SDS011;53333;51.976;20.144;2023-03-14T13:18:33;12.10;;;7.35;;
36663;SDS011;53333;51.976;20.144;2023-03-14T13:21:09;10.93;;;6.63;;
36663;SDS011;53333;51.976;20.144;2023-03-14T13:23:58;10.30;;;6.15;;
36663;SDS011;53333;51.976;20.144;2023-03-14T13:26:33;11.93;;;6.50;;
36663;SDS011;53333;51.976;20.144;2023-03-14T13:29:08;11.90;;;6.72;;
36663;SDS011;53333;51.976;20.144;2023-03-14T13:31:43;14.32;;;7.38;;
36663;SDS011;53333;51.976;20.144;2023-03-14T13:34:19;13.05;;;6.78;;
36663;SDS011;53333;51.976;20.144;2023-03-14T13:36:52;15.88;;;7.55;;
36663;SDS011;53333;51.976;20.144;2023-03-14T13:39:26;11.77;;;6.72;;
36663;SDS011;53333;51.976;20.144;2023-03-14T13:42:01;12.63;;;7.32;;
36663;SDS011;53333;51.976;20.144;2023-03-14T13:44:36;12.82;;;6.95;;
36663;SDS011;53333;51.976;20.144;2023-03-14T13:47:12;9.88;;;7.05;;
36663;SDS011;53333;51.976;20.144;2023-03-14T13:49:50;10.88;;;6.97;;
36663;SDS011;53333;51.976;20.144;2023-03-14T13:52:28;14.60;;;8.35;;
36663;SDS011;53333;51.976;20.144;2023-03-14T13:55:03;14.20;;;7.13;;
36663;SDS011;53333;51.976;20.144;2023-03-14T13:57:44;14.57;;;7.97;;
36663;SDS011;53333;51.976;20.144;2023-03-14T14:00:19;11.50;;;7.28;;
36663;SDS011;53333;51.976;20.144;2023-03-14T14:02:55;16.15;;;8.50;;
36663;SDS011;53333;51.976;20.144;2023-03-14T14:05:32;9.98;;;7.30;;
36663;SDS011;53333;51.976;20.144;2023-03-14T14:08:10;13.88;;;7.25;;
36663;SDS011;53333;51.976;20.144;2023-03-14T14:10:44;15.82;;;8.80;;
36663;SDS011;53333;51.976;20.144;2023-03-14T14:13:24;31.92;;;16.85;;
36663;SDS011;53333;51.976;20.144;2023-03-14T14:16:03;13.32;;;8.05;;
36663;SDS011;53333;51.976;20.144;2023-03-14T14:18:37;10.48;;;6.80;;
36663;SDS011;53333;51.976;20.144;2023-03-14T14:21:12;15.45;;;8.07;;
36663;SDS011;53333;51.976;20.144;2023-03-14T14:23:47;11.27;;;7.07;;
36663;SDS011;53333;51.976;20.144;2023-03-14T14:26:24;14.07;;;8.43;;
36663;SDS011;53333;51.976;20.144;2023-03-14T14:29:01;14.20;;;8.13;;
36663;SDS011;53333;51.976;20.144;2023-03-14T14:31:35;16.35;;;8.13;;
36663;SDS011;53333;51.976;20.144;2023-03-14T14:34:17;11.88;;;7.05;;
36663;SDS011;53333;51.976;20.144;2023-03-14T14:36:53;14.50;;;8.50;;
36663;SDS011;53333;51.976;20.144;2023-03-14T14:39:27;12.13;;;7.65;;
36663;SDS011;53333;51.976;20.144;2023-03-14T14:42:02;14.07;;;8.00;;
36663;SDS011;53333;51.976;20.144;2023-03-14T14:44:35;15.70;;;9.18;;
36663;SDS011;53333;51.976;20.144;2023-03-14T14:47:11;12.27;;;8.60;;
36663;SDS011;53333;51.976;20.144;2023-03-14T14:49:46;13.88;;;8.38;;
36663;SDS011;53333;51.976;20.144;2023-03-14T14:52:34;24.08;;;13.40;;
36663;SDS011;53333;51.976;20.144;2023-03-14T14:55:11;15.40;;;9.05;;
36663;SDS011;53333;51.976;20.144;2023-03-14T14:57:50;15.13;;;8.85;;
36663;SDS011;53333;51.976;20.144;2023-03-14T15:00:25;16.17;;;10.13;;
36663;SDS011;53333;51.976;20.144;2023-03-14T15:03:00;16.52;;;8.98;;
36663;SDS011;53333;51.976;20.144;2023-03-14T15:05:35;16.50;;;9.52;;
36663;SDS011;53333;51.976;20.144;2023-03-14T15:08:12;15.73;;;9.65;;
36663;SDS011;53333;51.976;20.144;2023-03-14T15:10:48;16.33;;;9.43;;
36663;SDS011;53333;51.976;20.144;2023-03-14T15:13:21;21.58;;;9.23;;
36663;SDS011;53333;51.976;20.144;2023-03-14T15:15:54;14.38;;;9.20;;
36663;SDS011;53333;51.976;20.144;2023-03-14T15:21:01;16.92;;;10.35;;
36663;SDS011;53333;51.976;20.144;2023-03-14T15:23:36;20.75;;;10.55;;
36663;SDS011;53333;51.976;20.144;2023-03-14T15:26:11;16.63;;;10.07;;
36663;SDS011;53333;51.976;20.144;2023-03-14T15:28:46;18.77;;;9.82;;
36663;SDS011;53333;51.976;20.144;2023-03-14T15:31:19;20.52;;;10.35;;
36663;SDS011;53333;51.976;20.144;2023-03-14T15:33:53;16.50;;;9.88;;
36663;SDS011;53333;51.976;20.144;2023-03-14T15:36:27;20.80;;;10.32;;
36663;SDS011;53333;51.976;20.144;2023-03-14T15:39:03;16.70;;;9.52;;
36663;SDS011;53333;51.976;20.144;2023-03-14T15:41:37;17.75;;;9.63;;
36663;SDS011;53333;51.976;20.144;2023-03-14T15:44:10;16.10;;;10.00;;
36663;SDS011;53333;51.976;20.144;2023-03-14T15:46:43;17.83;;;9.43;;
36663;SDS011;53333;51.976;20.144;2023-03-14T15:49:16;15.18;;;9.40;;
36663;SDS011;53333;51.976;20.144;2023-03-14T15:51:49;14.45;;;8.35;;
36663;SDS011;53333;51.976;20.144;2023-03-14T15:54:24;16.23;;;9.73;;
36663;SDS011;53333;51.976;20.144;2023-03-14T15:56:59;11.50;;;8.57;;